Time;durP1;ratioP1;P1;durP2;ratioP2;P2;SDS_P1;SDS_P2;PMS_P1;PMS_P2;Temp;Humidity;BMP_temperature;BMP_pressure;BME280_temperature;BME280_humidity;BME280_pressure;Samples;Min_cycle;Max_cycle;Signal;HPM_P1;HPM_P2
2022/09/04 00:01:47;;;;;;;;;;;21.70;65.10;;;;;;5031733;28;1308;-71
2022/09/04 00:04:31;;;;;;;;;;;21.70;65.10;;;;;;5032743;28;1200;-70
2022/09/04 00:06:59;;;;;;;;;;;21.70;65.10;;;;;;5032506;28;1309;-69
2022/09/04 00:09:27;;;;;;;;;;;21.70;65.10;;;;;;5032460;28;1339;-69
2022/09/04 00:11:58;;;;;;;;;;;21.70;65.10;;;;;;5030521;28;1327;-69
2022/09/04 00:14:30;;;;;;;;;;;21.70;65.10;;;;;;5031401;28;1108;-69
2022/09/04 00:17:02;;;;;;;;;;;21.70;65.20;;;;;;5031293;28;1676;-68
2022/09/04 00:19:58;;;;;;;;;;;21.70;65.10;;;;;;5030681;28;1383;-69
2022/09/04 00:22:26;;;;;;;;;;;21.70;65.20;;;;;;5027142;28;1331;-69
2022/09/04 00:24:58;;;;;;;;;;;21.70;65.20;;;;;;5031141;28;1975;-69
2022/09/04 00:27:24;;;;;;;;;;;21.70;65.20;;;;;;5021875;28;1407;-69
2022/09/04 00:30:06;;;;;;;;;;;21.70;65.20;;;;;;5046461;28;1328;-69
2022/09/04 00:32:50;;;;;;;;;;;21.70;65.20;;;;;;5030701;28;1290;-69
2022/09/04 00:35:16;;;;;;;;;;;21.70;65.20;;;;;;5032814;28;1389;-68
2022/09/04 00:37:43;;;;;;;;;;;21.70;65.20;;;;;;5036440;28;1364;-69
2022/09/04 00:40:15;;;;;;;;;;;21.70;65.30;;;;;;5036519;28;1377;-69
2022/09/04 00:42:41;;;;;;;;;;;21.70;65.30;;;;;;5034388;28;1303;-71
2022/09/04 00:45:24;;;;;;;;;;;21.70;65.30;;;;;;5036355;28;1918;-71
2022/09/04 00:47:59;;;;;;;;;;;21.70;65.30;;;;;;5034638;28;1263;-71
2022/09/04 00:50:25;;;;;;;;;;;21.70;65.30;;;;;;5034742;28;1066;-71
2022/09/04 00:53:04;;;;;;;;;;;21.70;65.30;;;;;;5035766;28;1276;-69
2022/09/04 00:55:44;;;;;;;;;;;21.70;65.30;;;;;;5035112;28;1285;-69
2022/09/04 00:58:20;;;;;;;;;;;21.70;65.40;;;;;;5034466;28;1317;-69
2022/09/04 01:00:46;;;;;;;;;;;21.70;65.40;;;;;;5036163;28;1432;-69
2022/09/04 01:03:37;;;;;;;;;;;21.70;65.40;;;;;;5034291;28;1266;-69
2022/09/04 01:06:09;;;;;;;;;;;21.70;65.40;;;;;;5033978;28;1906;-70
2022/09/04 01:08:43;;;;;;;;;;;21.70;65.40;;;;;;5035662;28;1240;-68
2022/09/04 01:11:13;;;;;;;;;;;21.70;65.40;;;;;;5036027;28;1249;-70
2022/09/04 01:13:41;;;;;;;;;;;21.70;65.40;;;;;;5035804;28;1319;-70
2022/09/04 01:16:26;;;;;;;;;;;21.70;65.40;;;;;;5034558;28;1283;-69
2022/09/04 01:18:57;;;;;;;;;;;21.70;65.40;;;;;;5035073;28;1306;-69
2022/09/04 01:21:29;;;;;;;;;;;21.70;65.50;;;;;;5033577;28;1643;-69
2022/09/04 01:23:58;;;;;;;;;;;21.70;65.50;;;;;;5034233;28;1157;-70
2022/09/04 01:26:26;;;;;;;;;;;21.70;65.50;;;;;;5033613;28;1965;-72
2022/09/04 01:28:57;;;;;;;;;;;21.70;65.50;;;;;;5026434;28;1617;-72
2022/09/04 01:31:23;;;;;;;;;;;21.70;65.50;;;;;;5030155;28;1128;-70
2022/09/04 01:34:01;;;;;;;;;;;21.70;65.50;;;;;;5026076;28;1206;-70
2022/09/04 01:36:26;;;;;;;;;;;21.70;65.50;;;;;;5034238;28;1336;-70
2022/09/04 01:38:53;;;;;;;;;;;21.70;65.60;;;;;;5035258;28;1327;-70
2022/09/04 01:41:21;;;;;;;;;;;21.70;65.60;;;;;;5033023;28;1380;-70
2022/09/04 01:43:46;;;;;;;;;;;21.70;65.60;;;;;;5033545;28;1502;-70
2022/09/04 01:46:30;;;;;;;;;;;21.70;65.60;;;;;;5034285;28;1971;-70
2022/09/04 01:48:58;;;;;;;;;;;21.70;65.60;;;;;;5034837;28;1119;-69
2022/09/04 01:51:27;;;;;;;;;;;21.70;65.60;;;;;;5033778;28;1151;-69
2022/09/04 01:53:59;;;;;;;;;;;21.70;65.60;;;;;;5033292;28;1363;-70
2022/09/04 01:56:25;;;;;;;;;;;21.70;65.60;;;;;;5034137;28;1379;-70
2022/09/04 01:58:55;;;;;;;;;;;21.70;65.70;;;;;;5033793;28;1212;-70
2022/09/04 02:01:39;;;;;;;;;;;21.70;65.70;;;;;;5034452;28;1131;-70
2022/09/04 02:04:08;;;;;;;;;;;21.70;65.70;;;;;;5021931;28;1073;-70
2022/09/04 02:06:39;;;;;;;;;;;21.70;65.70;;;;;;5030022;28;1910;-68
2022/09/04 02:09:20;;;;;;;;;;;21.70;65.70;;;;;;5028518;28;1200;-70
2022/09/04 02:11:50;;;;;;;;;;;21.70;65.60;;;;;;5034645;28;1072;-70
2022/09/04 02:14:18;;;;;;;;;;;21.70;65.70;;;;;;5034848;28;1151;-71
2022/09/04 02:16:55;;;;;;;;;;;21.70;65.70;;;;;;5034733;28;1286;-70
2022/09/04 02:19:40;;;;;;;;;;;21.70;65.70;;;;;;5017239;28;1578;-70
2022/09/04 02:22:20;;;;;;;;;;;21.70;66.00;;;;;;5034175;28;1395;-69
2022/09/04 02:24:49;;;;;;;;;;;21.70;65.70;;;;;;5034256;28;1894;-72
2022/09/04 02:27:14;;;;;;;;;;;21.70;65.70;;;;;;5026480;28;1280;-70
2022/09/04 02:29:43;;;;;;;;;;;21.70;65.70;;;;;;5032489;28;1948;-70
2022/09/04 02:32:17;;;;;;;;;;;21.70;65.70;;;;;;5033008;28;1598;-70
2022/09/04 02:34:45;;;;;;;;;;;21.70;65.70;;;;;;5027476;28;1519;-70
2022/09/04 02:37:16;;;;;;;;;;;21.70;65.70;;;;;;5026791;28;1346;-70
2022/09/04 02:39:48;;;;;;;;;;;21.70;65.70;;;;;;5020144;28;1086;-70
2022/09/04 02:42:20;;;;;;;;;;;21.70;65.70;;;;;;5034416;28;1039;-70
2022/09/04 02:44:47;;;;;;;;;;;21.70;65.70;;;;;;5034392;28;1894;-70
2022/09/04 02:47:23;;;;;;;;;;;21.70;66.50;;;;;;5032707;28;1359;-69
2022/09/04 02:49:49;;;;;;;;;;;21.70;65.80;;;;;;5032933;28;1076;-69
2022/09/04 02:52:32;;;;;;;;;;;21.70;65.80;;;;;;5033158;28;1095;-69
2022/09/04 02:55:10;;;;;;;;;;;21.70;65.80;;;;;;5033223;28;1167;-69
2022/09/04 02:57:55;;;;;;;;;;;21.70;65.80;;;;;;5019741;28;1211;-70
2022/09/04 03:00:26;;;;;;;;;;;21.70;65.80;;;;;;5033934;28;1096;-69
2022/09/04 03:02:57;;;;;;;;;;;21.70;65.80;;;;;;5032075;28;1081;-69
2022/09/04 03:05:24;;;;;;;;;;;21.70;65.80;;;;;;5032414;28;1890;-69
2022/09/04 03:07:52;;;;;;;;;;;21.70;65.80;;;;;;5033672;28;1592;-69
2022/09/04 03:10:18;;;;;;;;;;;21.70;65.80;;;;;;5033986;28;1103;-69
2022/09/04 03:12:50;;;;;;;;;;;21.70;65.80;;;;;;5032001;28;1355;-69
2022/09/04 03:15:16;;;;;;;;;;;21.70;65.80;;;;;;5033534;28;1092;-69
2022/09/04 03:17:46;;;;;;;;;;;21.70;66.60;;;;;;5033388;28;1268;-69
2022/09/04 03:20:17;;;;;;;;;;;21.70;65.90;;;;;;5032236;28;969;-69
2022/09/04 03:22:51;;;;;;;;;;;21.70;65.90;;;;;;5030856;28;1069;-69
2022/09/04 03:25:39;;;;;;;;;;;21.70;65.90;;;;;;5020569;28;1903;-69
2022/09/04 03:28:06;;;;;;;;;;;21.70;65.90;;;;;;5045164;28;1411;-69
2022/09/04 03:30:31;;;;;;;;;;;21.70;66.00;;;;;;5022267;28;1128;-69
2022/09/04 03:33:01;;;;;;;;;;;21.70;65.90;;;;;;5034675;28;1072;-69
2022/09/04 03:35:42;;;;;;;;;;;21.70;65.90;;;;;;5048174;28;1052;-69
2022/09/04 03:38:07;;;;;;;;;;;21.70;66.00;;;;;;5032924;28;1366;-69
2022/09/04 03:40:37;;;;;;;;;;;21.70;66.00;;;;;;5033354;28;986;-69
2022/09/04 03:43:07;;;;;;;;;;;21.70;66.00;;;;;;5030870;28;1152;-69
2022/09/04 03:45:51;;;;;;;;;;;21.70;66.00;;;;;;5032172;28;1894;-69
2022/09/04 03:48:17;;;;;;;;;;;21.70;66.00;;;;;;5032969;28;1250;-69
2022/09/04 03:50:46;;;;;;;;;;;21.70;66.00;;;;;;5032596;28;1178;-69
2022/09/04 03:53:20;;;;;;;;;;;21.70;66.00;;;;;;5031310;28;2020;-68
2022/09/04 03:56:04;;;;;;;;;;;21.70;66.00;;;;;;5030339;28;1002;-68
2022/09/04 03:58:37;;;;;;;;;;;21.70;66.10;;;;;;5013007;28;1153;-68
2022/09/04 04:01:12;;;;;;;;;;;21.70;66.10;;;;;;5027808;28;994;-68
2022/09/04 04:03:40;;;;;;;;;;;21.70;66.10;;;;;;5013153;28;828;-68
2022/09/04 04:06:22;;;;;;;;;;;21.70;66.10;;;;;;5012668;28;1902;-67
2022/09/04 04:08:55;;;;;;;;;;;21.70;66.10;;;;;;5028153;28;1168;-68
2022/09/04 04:11:28;;;;;;;;;;;21.70;66.10;;;;;;5012130;28;816;-68
2022/09/04 04:14:12;;;;;;;;;;;21.70;66.00;;;;;;5012725;28;883;-68
2022/09/04 04:16:39;;;;;;;;;;;21.70;66.10;;;;;;5011398;28;1326;-68
2022/09/04 04:19:23;;;;;;;;;;;21.70;66.10;;;;;;5012798;28;815;-68
2022/09/04 04:22:07;;;;;;;;;;;21.70;66.10;;;;;;5012223;28;879;-68
2022/09/04 04:24:53;;;;;;;;;;;21.70;66.10;;;;;;5028425;28;1961;-68
2022/09/04 04:27:32;;;;;;;;;;;21.70;66.10;;;;;;5024797;28;1275;-68
2022/09/04 04:30:00;;;;;;;;;;;21.70;66.10;;;;;;4995410;28;1311;-68
2022/09/04 04:32:35;;;;;;;;;;;21.70;66.10;;;;;;5016202;28;2209;-68
2022/09/04 04:35:03;;;;;;;;;;;21.70;66.10;;;;;;5024047;28;1324;-68
2022/09/04 04:37:49;;;;;;;;;;;21.70;66.10;;;;;;5028199;28;1369;-68
2022/09/04 04:40:26;;;;;;;;;;;21.70;66.10;;;;;;5021370;28;1198;-68
2022/09/04 04:42:58;;;;;;;;;;;21.70;66.10;;;;;;5011803;28;907;-68
2022/09/04 04:48:30;;;;;;;;;;;21.70;66.10;;;;;;5023969;28;1401;-69
2022/09/04 04:50:59;;;;;;;;;;;21.70;66.10;;;;;;5030955;28;1131;-70
2022/09/04 04:53:35;;;;;;;;;;;21.70;66.10;;;;;;5032126;28;894;-69
2022/09/04 04:56:13;;;;;;;;;;;21.70;66.10;;;;;;5031446;28;978;-69
2022/09/04 04:58:57;;;;;;;;;;;21.70;66.10;;;;;;5032288;28;1167;-68
2022/09/04 05:01:32;;;;;;;;;;;21.70;66.10;;;;;;5031699;28;816;-70
2022/09/04 05:03:58;;;;;;;;;;;21.70;66.10;;;;;;5032360;28;886;-69
2022/09/04 05:06:46;;;;;;;;;;;21.70;66.10;;;;;;5030386;28;2069;-69
2022/09/04 05:09:20;;;;;;;;;;;21.70;66.10;;;;;;5024299;28;1757;-68
2022/09/04 05:11:46;;;;;;;;;;;21.70;66.20;;;;;;5030184;28;1304;-69
2022/09/04 05:14:20;;;;;;;;;;;21.70;66.20;;;;;;5019172;28;1032;-69
2022/09/04 05:16:48;;;;;;;;;;;21.70;66.20;;;;;;5012217;28;1205;-69
2022/09/04 05:19:17;;;;;;;;;;;21.70;66.20;;;;;;5012549;28;887;-69
2022/09/04 05:21:42;;;;;;;;;;;21.70;66.20;;;;;;5012965;28;741;-69
2022/09/04 05:24:09;;;;;;;;;;;21.70;66.20;;;;;;5015944;28;1068;-69
2022/09/04 05:26:35;;;;;;;;;;;21.70;66.20;;;;;;5016791;28;1899;-68
2022/09/04 05:29:03;;;;;;;;;;;21.70;66.30;;;;;;5035746;28;948;-69
2022/09/04 05:31:31;;;;;;;;;;;21.70;66.30;;;;;;5035221;28;993;-69
2022/09/04 05:34:02;;;;;;;;;;;21.70;66.30;;;;;;5034443;28;855;-68
2022/09/04 05:36:31;;;;;;;;;;;21.70;66.30;;;;;;5035705;28;954;-69
2022/09/04 05:38:59;;;;;;;;;;;21.70;66.30;;;;;;5034966;28;1033;-68
2022/09/04 05:41:35;;;;;;;;;;;21.70;66.30;;;;;;5035212;28;946;-68
2022/09/04 05:44:19;;;;;;;;;;;21.70;66.40;;;;;;5035696;28;776;-69
2022/09/04 05:47:02;;;;;;;;;;;21.70;66.30;;;;;;5035411;28;1910;-69
2022/09/04 05:49:33;;;;;;;;;;;21.70;66.30;;;;;;5034607;28;859;-69
2022/09/04 05:52:04;;;;;;;;;;;21.70;66.30;;;;;;5033334;28;1010;-69
2022/09/04 05:54:30;;;;;;;;;;;21.70;66.40;;;;;;5035433;28;946;-68
2022/09/04 05:56:58;;;;;;;;;;;21.70;66.40;;;;;;5033891;28;1203;-69
2022/09/04 05:59:42;;;;;;;;;;;21.70;66.40;;;;;;5015310;28;943;-68
2022/09/04 06:02:14;;;;;;;;;;;21.70;66.40;;;;;;5014985;28;824;-69
2022/09/04 06:04:59;;;;;;;;;;;21.70;66.30;;;;;;5014369;28;1961;-69
2022/09/04 06:07:30;;;;;;;;;;;21.70;66.40;;;;;;5015270;28;1300;-69
2022/09/04 06:10:14;;;;;;;;;;;21.70;66.40;;;;;;5015261;28;950;-69
2022/09/04 06:12:58;;;;;;;;;;;21.70;66.40;;;;;;5014435;28;812;-68
2022/09/04 06:15:47;;;;;;;;;;;21.70;66.40;;;;;;5015184;28;922;-69
2022/09/04 06:18:16;;;;;;;;;;;21.70;66.40;;;;;;5005277;28;1281;-69
2022/09/04 06:21:00;;;;;;;;;;;21.70;66.40;;;;;;5013795;28;1030;-68
2022/09/04 06:23:34;;;;;;;;;;;21.70;66.40;;;;;;5020856;28;1195;-69
2022/09/04 06:26:02;;;;;;;;;;;21.70;66.40;;;;;;5034810;28;1890;-68
2022/09/04 06:28:46;;;;;;;;;;;21.70;66.50;;;;;;5016491;28;1451;-68
2022/09/04 06:31:14;;;;;;;;;;;21.70;66.40;;;;;;5014494;28;816;-68
2022/09/04 06:33:43;;;;;;;;;;;21.70;66.50;;;;;;5014097;28;1002;-69
2022/09/04 06:36:18;;;;;;;;;;;21.70;66.40;;;;;;5013510;28;819;-69
2022/09/04 06:38:49;;;;;;;;;;;21.70;66.50;;;;;;5014261;28;1204;-69
2022/09/04 06:41:34;;;;;;;;;;;21.70;66.50;;;;;;5014323;28;839;-69
2022/09/04 06:43:59;;;;;;;;;;;21.70;66.50;;;;;;5014433;28;874;-69
2022/09/04 06:46:43;;;;;;;;;;;21.70;66.50;;;;;;5014613;28;1958;-69
2022/09/04 06:49:08;;;;;;;;;;;21.70;66.50;;;;;;5014371;28;990;-69
2022/09/04 06:51:58;;;;;;;;;;;21.70;66.50;;;;;;5014052;28;815;-69
2022/09/04 06:54:27;;;;;;;;;;;21.70;66.50;;;;;;5012871;28;1026;-69
2022/09/04 06:56:57;;;;;;;;;;;21.70;66.50;;;;;;5014100;28;1217;-68
2022/09/04 06:59:22;;;;;;;;;;;21.70;66.60;;;;;;5049148;28;867;-68
2022/09/04 07:01:59;;;;;;;;;;;21.70;66.50;;;;;;5033876;28;815;-69
2022/09/04 07:04:31;;;;;;;;;;;21.70;66.50;;;;;;5033595;28;816;-69
2022/09/04 07:07:16;;;;;;;;;;;21.70;66.50;;;;;;5049303;28;1949;-68
2022/09/04 07:10:08;;;;;;;;;;;21.70;66.60;;;;;;5049263;28;835;-68
2022/09/04 07:12:36;;;;;;;;;;;21.70;66.60;;;;;;5031874;28;1271;-68
2022/09/04 07:15:20;;;;;;;;;;;21.70;66.60;;;;;;5033823;28;970;-69
2022/09/04 07:17:52;;;;;;;;;;;21.70;66.50;;;;;;5048885;28;1358;-68
2022/09/04 07:20:31;;;;;;;;;;;21.70;66.60;;;;;;5048991;28;878;-68
2022/09/04 07:22:57;;;;;;;;;;;21.70;66.60;;;;;;5048343;28;1127;-68
2022/09/04 07:25:26;;;;;;;;;;;21.70;66.60;;;;;;5033386;28;1902;-69
2022/09/04 07:28:13;;;;;;;;;;;21.70;66.60;;;;;;5032062;28;1373;-68
2022/09/04 07:30:41;;;;;;;;;;;21.70;66.60;;;;;;5064294;22;3918;-64
2022/09/04 07:33:15;;;;;;;;;;;21.70;66.60;;;;;;5068608;28;1084;-65
2022/09/04 07:35:42;;;;;;;;;;;21.70;66.60;;;;;;5069362;28;932;-63
2022/09/04 07:38:26;;;;;;;;;;;21.70;66.60;;;;;;5053794;28;854;-65
2022/09/04 07:40:57;;;;;;;;;;;21.70;66.60;;;;;;5053603;28;1276;-65
2022/09/04 07:43:26;;;;;;;;;;;21.70;66.60;;;;;;5068843;28;838;-65
2022/09/04 07:45:57;;;;;;;;;;;21.70;66.70;;;;;;5053622;28;1906;-64
2022/09/04 07:48:31;;;;;;;;;;;21.70;66.70;;;;;;5068939;28;870;-64
2022/09/04 07:51:09;;;;;;;;;;;21.70;66.70;;;;;;5053157;28;1342;-64
2022/09/04 07:53:38;;;;;;;;;;;21.70;66.70;;;;;;5067713;28;850;-64
2022/09/04 07:56:22;;;;;;;;;;;21.70;66.70;;;;;;5053472;28;811;-64
2022/09/04 07:59:08;;;;;;;;;;;21.70;66.70;;;;;;5053370;28;1345;-64
2022/09/04 08:01:48;;;;;;;;;;;21.70;66.70;;;;;;5053341;28;826;-64
2022/09/04 08:04:19;;;;;;;;;;;21.70;66.70;;;;;;5053058;28;835;-64
2022/09/04 08:06:49;;;;;;;;;;;21.70;66.80;;;;;;5053029;28;1894;-64
2022/09/04 08:09:20;;;;;;;;;;;21.70;66.70;;;;;;5051631;28;1213;-64
2022/09/04 08:11:53;;;;;;;;;;;21.70;66.80;;;;;;5051707;28;787;-64
2022/09/04 08:14:25;;;;;;;;;;;21.70;66.70;;;;;;5053307;28;937;-64
2022/09/04 08:17:01;;;;;;;;;;;21.70;66.70;;;;;;5051932;28;874;-64
2022/09/04 08:19:33;;;;;;;;;;;21.70;66.80;;;;;;5051370;28;1271;-64
2022/09/04 08:21:58;;;;;;;;;;;21.70;66.80;;;;;;5052880;28;853;-64
2022/09/04 08:24:33;;;;;;;;;;;21.70;66.80;;;;;;5038006;28;1177;-64
2022/09/04 08:27:02;;;;;;;;;;;21.70;66.80;;;;;;5038400;28;1945;-64
2022/09/04 08:29:33;;;;;;;;;;;21.70;66.80;;;;;;5052992;28;1173;-64
2022/09/04 08:32:03;;;;;;;;;;;21.70;66.80;;;;;;5051244;28;958;-64
2022/09/04 08:34:31;;;;;;;;;;;21.70;66.80;;;;;;5052779;28;811;-64
2022/09/04 08:37:02;;;;;;;;;;;21.70;66.80;;;;;;5052807;28;930;-64
2022/09/04 08:39:31;;;;;;;;;;;21.70;66.80;;;;;;5052593;28;1260;-64
2022/09/04 08:42:23;;;;;;;;;;;21.70;66.80;;;;;;5051656;28;862;-64
2022/09/04 08:45:07;;;;;;;;;;;21.70;66.80;;;;;;5044201;28;1910;-64
2022/09/04 08:47:34;;;;;;;;;;;21.70;66.80;;;;;;5052783;28;901;-64
2022/09/04 08:50:08;;;;;;;;;;;21.70;66.80;;;;;;5052633;28;1181;-64
2022/09/04 08:52:53;;;;;;;;;;;21.70;66.90;;;;;;5052279;28;1017;-64
2022/09/04 08:55:54;;;;;;;;;;;21.70;66.80;;;;;;5052758;28;960;-64
2022/09/04 08:58:37;;;;;;;;;;;21.70;66.90;;;;;;5032029;28;1260;-64
2022/09/04 09:01:15;;;;;;;;;;;21.70;66.90;;;;;;5034957;28;1252;-64
2022/09/04 09:03:55;;;;;;;;;;;21.70;66.90;;;;;;5036564;28;990;-64
2022/09/04 09:06:39;;;;;;;;;;;21.70;66.80;;;;;;5036599;28;1969;-64
2022/09/04 09:09:13;;;;;;;;;;;21.70;66.80;;;;;;5036468;28;1083;-64
2022/09/04 09:11:39;;;;;;;;;;;21.70;66.90;;;;;;5034897;28;1041;-64
2022/09/04 09:14:15;;;;;;;;;;;21.70;66.90;;;;;;5036264;28;775;-64
2022/09/04 09:16:46;;;;;;;;;;;21.70;66.90;;;;;;5035182;28;1068;-64
2022/09/04 09:19:18;;;;;;;;;;;21.70;66.90;;;;;;5034944;28;1707;-63
2022/09/04 09:21:44;;;;;;;;;;;21.70;66.90;;;;;;5036485;28;901;-64
2022/09/04 09:24:12;;;;;;;;;;;21.70;66.90;;;;;;5047257;28;1091;-64
2022/09/04 09:26:46;;;;;;;;;;;21.70;66.90;;;;;;5053428;28;1902;-64
2022/09/04 09:29:18;;;;;;;;;;;21.70;67.00;;;;;;5034856;28;1201;-64
2022/09/04 09:31:52;;;;;;;;;;;21.70;67.00;;;;;;5035919;28;835;-63
2022/09/04 09:34:26;;;;;;;;;;;21.70;67.00;;;;;;5035775;28;851;-64
2022/09/04 09:37:01;;;;;;;;;;;21.70;67.00;;;;;;5034811;28;1104;-64
2022/09/04 09:39:45;;;;;;;;;;;21.70;67.00;;;;;;5034586;28;1189;-64
2022/09/04 09:42:18;;;;;;;;;;;21.70;67.00;;;;;;5035524;28;826;-63
2022/09/04 09:45:03;;;;;;;;;;;21.70;67.00;;;;;;5034368;28;1898;-64
2022/09/04 09:47:31;;;;;;;;;;;21.70;67.00;;;;;;5038256;28;1915;-64
2022/09/04 09:50:15;;;;;;;;;;;21.70;67.10;;;;;;5052374;28;1657;-64
2022/09/04 09:52:59;;;;;;;;;;;21.70;67.10;;;;;;5047012;28;1607;-65
2022/09/04 09:55:33;;;;;;;;;;;21.70;67.00;;;;;;5055635;28;1060;-65
2022/09/04 09:58:10;;;;;;;;;;;21.70;67.00;;;;;;5045590;28;1409;-66
2022/09/04 10:00:39;;;;;;;;;;;21.70;65.40;;;;;;5035449;28;1194;-66
2022/09/04 10:03:12;;;;;;;;;;;21.70;65.30;;;;;;5035179;28;831;-66
2022/09/04 10:05:44;;;;;;;;;;;21.70;64.50;;;;;;5034224;28;1963;-65
2022/09/04 10:08:18;;;;;;;;;;;21.70;63.80;;;;;;5034218;28;835;-66
2022/09/04 10:11:03;;;;;;;;;;;21.70;63.10;;;;;;5035228;28;1347;-66
2022/09/04 10:13:41;;;;;;;;;;;21.70;62.90;;;;;;5035267;28;836;-66
2022/09/04 10:16:25;;;;;;;;;;;21.70;61.60;;;;;;5034084;28;1046;-66
2022/09/04 10:19:01;;;;;;;;;;;21.70;61.10;;;;;;5033995;28;840;-65
2022/09/04 10:21:45;;;;;;;;;;;21.80;60.10;;;;;;5017079;28;1434;-66
2022/09/04 10:24:10;;;;;;;;;;;21.80;60.40;;;;;;5047823;28;1417;-65
2022/09/04 10:26:39;;;;;;;;;;;21.70;59.60;;;;;;5052573;28;1893;-65
2022/09/04 10:29:13;;;;;;;;;;;21.70;59.80;;;;;;5035202;28;875;-64
2022/09/04 10:31:57;;;;;;;;;;;21.80;59.20;;;;;;5034679;28;899;-64
2022/09/04 10:34:28;;;;;;;;;;;21.80;58.90;;;;;;5033013;28;886;-65
2022/09/04 10:37:12;;;;;;;;;;;21.80;58.20;;;;;;5033181;28;827;-64
2022/09/04 10:42:27;;;;;;;;;;;21.80;58.90;;;;;;5052720;28;988;-66
2022/09/04 10:45:11;;;;;;;;;;;21.80;58.60;;;;;;5046115;28;1898;-66
2022/09/04 10:47:40;;;;;;;;;;;21.80;58.00;;;;;;5054407;28;1042;-66
2022/09/04 10:50:16;;;;;;;;;;;21.80;58.50;;;;;;5054658;28;1279;-66
2022/09/04 10:52:41;;;;;;;;;;;21.80;58.40;;;;;;5052792;28;1104;-68
2022/09/04 10:55:06;;;;;;;;;;;21.80;58.20;;;;;;5054416;28;858;-66
2022/09/04 10:57:32;;;;;;;;;;;21.80;57.50;;;;;;5047894;28;1155;-67
2022/09/04 11:00:07;;;;;;;;;;;21.80;58.30;;;;;;5034114;28;1296;-66
2022/09/04 11:02:36;;;;;;;;;;;21.80;58.30;;;;;;5032735;28;1041;-67
2022/09/04 11:05:05;;;;;;;;;;;21.80;57.60;;;;;;5034242;28;1940;-66
2022/09/04 11:07:50;;;;;;;;;;;21.80;57.10;;;;;;5032992;28;835;-67
2022/09/04 11:10:18;;;;;;;;;;;21.80;56.90;;;;;;5033933;28;1248;-65
2022/09/04 11:12:43;;;;;;;;;;;21.80;56.60;;;;;;5033722;28;894;-66
2022/09/04 11:15:27;;;;;;;;;;;21.80;57.20;;;;;;5043060;28;2436;-66
2022/09/04 11:18:00;;;;;;;;;;;21.80;56.80;;;;;;5051473;28;1158;-65
2022/09/04 11:20:52;;;;;;;;;;;21.80;56.90;;;;;;5047350;28;1248;-66
2022/09/04 11:23:17;;;;;;;;;;;21.80;56.40;;;;;;5023857;28;1167;-66
2022/09/04 11:25:51;;;;;;;;;;;21.80;56.30;;;;;;5050249;28;1890;-66
2022/09/04 11:28:24;;;;;;;;;;;21.80;56.30;;;;;;5035020;28;1242;-65
2022/09/04 11:31:01;;;;;;;;;;;21.80;56.40;;;;;;5033629;28;1283;-65
2022/09/04 11:33:35;;;;;;;;;;;21.80;56.20;;;;;;5042884;28;1229;-65
2022/09/04 11:36:05;;;;;;;;;;;21.80;56.50;;;;;;5044322;28;1998;-65
2022/09/04 11:38:42;;;;;;;;;;;21.80;55.60;;;;;;5044788;28;1205;-65
2022/09/04 11:41:17;;;;;;;;;;;21.80;55.40;;;;;;5047322;28;2426;-65
2022/09/04 11:43:47;;;;;;;;;;;21.80;55.10;;;;;;5038905;28;1853;-65
2022/09/04 11:46:25;;;;;;;;;;;21.80;55.00;;;;;;5020799;28;1910;-65
2022/09/04 11:49:09;;;;;;;;;;;21.80;55.20;;;;;;5053295;28;857;-65
2022/09/04 11:51:39;;;;;;;;;;;21.90;54.80;;;;;;5053087;28;831;-65
2022/09/04 11:54:14;;;;;;;;;;;21.90;54.90;;;;;;5052406;28;870;-65
2022/09/04 11:56:39;;;;;;;;;;;21.90;54.90;;;;;;5053573;28;878;-65
2022/09/04 11:59:28;;;;;;;;;;;21.90;54.50;;;;;;5034222;28;1257;-66
2022/09/04 12:02:14;;;;;;;;;;;21.90;54.30;;;;;;5032151;28;886;-65
2022/09/04 12:04:49;;;;;;;;;;;21.90;54.30;;;;;;5031956;28;887;-66
2022/09/04 12:07:14;;;;;;;;;;;21.90;54.20;;;;;;5033350;28;1119;-64
2022/09/04 12:09:50;;;;;;;;;;;21.90;54.80;;;;;;5033506;28;1268;-65
2022/09/04 12:12:34;;;;;;;;;;;21.90;54.40;;;;;;5032948;28;1041;-66
2022/09/04 12:15:21;;;;;;;;;;;21.90;54.10;;;;;;5033174;28;927;-65
2022/09/04 12:17:47;;;;;;;;;;;21.90;54.40;;;;;;5033263;28;895;-65
2022/09/04 12:20:32;;;;;;;;;;;21.90;54.30;;;;;;5033114;28;1161;-65
2022/09/04 12:23:03;;;;;;;;;;;21.90;54.70;;;;;;5035443;28;1162;-65
2022/09/04 12:25:47;;;;;;;;;;;21.90;54.00;;;;;;5053000;28;1906;-64
2022/09/04 12:28:33;;;;;;;;;;;21.90;53.70;;;;;;5037542;28;1210;-65
2022/09/04 12:31:17;;;;;;;;;;;21.90;54.00;;;;;;5032070;28;1283;-66
2022/09/04 12:33:57;;;;;;;;;;;21.90;53.50;;;;;;5032687;28;803;-66
2022/09/04 12:36:23;;;;;;;;;;;21.90;53.30;;;;;;5033185;28;899;-64
2022/09/04 12:39:01;;;;;;;;;;;21.90;53.30;;;;;;5033277;28;816;-66
2022/09/04 12:41:29;;;;;;;;;;;21.90;52.80;;;;;;5032928;28;1221;-66
2022/09/04 12:44:13;;;;;;;;;;;21.90;53.40;;;;;;5032876;28;796;-65
2022/09/04 12:46:49;;;;;;;;;;;21.90;53.20;;;;;;5032664;28;1902;-65
2022/09/04 12:49:26;;;;;;;;;;;21.90;52.80;;;;;;5032747;28;1197;-65
2022/09/04 12:51:55;;;;;;;;;;;21.90;52.60;;;;;;5032456;28;883;-64
2022/09/04 12:54:24;;;;;;;;;;;21.90;52.90;;;;;;5031373;28;899;-65
2022/09/04 12:57:11;;;;;;;;;;;21.90;52.50;;;;;;5031809;28;1253;-64
2022/09/04 12:59:55;;;;;;;;;;;21.90;52.60;;;;;;5053001;28;1197;-65
2022/09/04 13:02:31;;;;;;;;;;;21.90;53.40;;;;;;5052495;28;871;-66
2022/09/04 13:05:02;;;;;;;;;;;21.90;52.30;;;;;;5054401;28;1874;-65
2022/09/04 13:07:36;;;;;;;;;;;21.90;52.10;;;;;;5058086;28;819;-64
2022/09/04 13:10:20;;;;;;;;;;;21.90;52.50;;;;;;5052895;28;1185;-66
2022/09/04 13:12:53;;;;;;;;;;;21.90;52.20;;;;;;5052226;28;993;-66
2022/09/04 13:15:25;;;;;;;;;;;21.90;52.10;;;;;;5051150;28;824;-65
2022/09/04 13:18:00;;;;;;;;;;;22.00;51.90;;;;;;5051319;28;1037;-65
2022/09/04 13:20:39;;;;;;;;;;;22.00;52.00;;;;;;5052405;28;1201;-65
2022/09/04 13:23:10;;;;;;;;;;;22.00;52.30;;;;;;5052033;28;1068;-65
2022/09/04 13:25:56;;;;;;;;;;;22.00;52.20;;;;;;5052219;28;1898;-65
2022/09/04 13:28:24;;;;;;;;;;;22.00;52.10;;;;;;5035480;28;1682;-65
2022/09/04 13:30:58;;;;;;;;;;;22.00;52.00;;;;;;5057837;22;2044;-71
2022/09/04 13:33:42;;;;;;;;;;;21.90;51.90;;;;;;5030538;28;889;-70
2022/09/04 13:36:34;;;;;;;;;;;21.90;51.90;;;;;;5031307;28;1060;-70
2022/09/04 13:39:04;;;;;;;;;;;21.90;51.50;;;;;;5030279;28;1117;-71
2022/09/04 13:41:49;;;;;;;;;;;21.90;51.60;;;;;;5046049;28;1342;-71
2022/09/04 13:44:30;;;;;;;;;;;21.90;51.10;;;;;;5033929;28;887;-69
2022/09/04 13:47:01;;;;;;;;;;;21.90;51.40;;;;;;5034916;28;1985;-68
2022/09/04 13:49:27;;;;;;;;;;;21.90;51.70;;;;;;5035281;28;890;-69
2022/09/04 13:51:54;;;;;;;;;;;21.90;51.00;;;;;;5033757;28;1334;-69
2022/09/04 13:54:39;;;;;;;;;;;21.90;51.10;;;;;;5035250;28;831;-69
2022/09/04 13:57:06;;;;;;;;;;;21.90;51.20;;;;;;5036197;28;1207;-69
2022/09/04 13:59:31;;;;;;;;;;;21.90;51.20;;;;;;5053796;28;885;-70
2022/09/04 14:01:58;;;;;;;;;;;21.90;51.10;;;;;;5053323;28;1569;-69
2022/09/04 14:04:28;;;;;;;;;;;21.90;51.00;;;;;;5055029;28;830;-69
2022/09/04 14:07:05;;;;;;;;;;;21.90;50.80;;;;;;5053605;28;1910;-69
2022/09/04 14:09:31;;;;;;;;;;;22.00;51.10;;;;;;5053599;28;910;-69
2022/09/04 14:12:14;;;;;;;;;;;22.00;51.10;;;;;;5053050;28;1183;-69
2022/09/04 14:14:58;;;;;;;;;;;21.90;50.90;;;;;;5054734;28;878;-69
2022/09/04 14:17:27;;;;;;;;;;;22.00;50.70;;;;;;5054844;28;862;-69
2022/09/04 14:19:52;;;;;;;;;;;21.90;50.90;;;;;;5052970;28;934;-69
2022/09/04 14:22:33;;;;;;;;;;;22.00;51.30;;;;;;5054100;28;1140;-69
2022/09/04 14:25:08;;;;;;;;;;;22.00;51.40;;;;;;5034823;28;1890;-69
2022/09/04 14:27:38;;;;;;;;;;;21.90;50.60;;;;;;5044536;28;1130;-69
2022/09/04 14:30:04;;;;;;;;;;;21.90;51.30;;;;;;5053016;28;1203;-69
2022/09/04 14:32:51;;;;;;;;;;;21.90;51.20;;;;;;5053882;28;998;-69
2022/09/04 14:35:20;;;;;;;;;;;21.90;51.00;;;;;;5054166;28;839;-70
2022/09/04 14:38:04;;;;;;;;;;;21.90;52.50;;;;;;5053371;28;930;-70
2022/09/04 14:40:29;;;;;;;;;;;21.90;52.60;;;;;;5047394;28;2061;-70
2022/09/04 14:43:01;;;;;;;;;;;21.90;50.90;;;;;;5045295;28;996;-70
2022/09/04 14:45:45;;;;;;;;;;;21.90;50.90;;;;;;5054555;28;1905;-70
2022/09/04 14:48:11;;;;;;;;;;;21.90;51.40;;;;;;5054066;28;904;-70
2022/09/04 14:50:50;;;;;;;;;;;21.90;51.90;;;;;;5052730;28;1202;-70
2022/09/04 14:53:23;;;;;;;;;;;21.90;51.90;;;;;;5051802;28;1079;-70
2022/09/04 14:56:04;;;;;;;;;;;21.90;51.80;;;;;;5052116;28;890;-69
2022/09/04 14:58:31;;;;;;;;;;;21.90;51.40;;;;;;5038649;28;1453;-70
2022/09/04 15:01:01;;;;;;;;;;;21.90;51.10;;;;;;5033301;28;1287;-70
2022/09/04 15:03:33;;;;;;;;;;;21.90;51.20;;;;;;5032422;28;1109;-69
2022/09/04 15:06:04;;;;;;;;;;;21.90;51.20;;;;;;5032275;28;1894;-69
2022/09/04 15:08:32;;;;;;;;;;;21.90;51.20;;;;;;5033044;28;1039;-70
2022/09/04 15:11:01;;;;;;;;;;;21.90;51.70;;;;;;5032251;28;1235;-70
2022/09/04 15:13:26;;;;;;;;;;;21.90;52.20;;;;;;5032468;28;816;-70
2022/09/04 15:15:53;;;;;;;;;;;21.90;51.70;;;;;;5033553;28;858;-70
2022/09/04 15:18:22;;;;;;;;;;;21.90;51.90;;;;;;5032293;28;815;-70
2022/09/04 15:20:53;;;;;;;;;;;21.90;52.70;;;;;;5033264;28;1203;-70